METAR Data
IDs: Format: Raw Decoded Include TAF

Data at: 1325 UTC 10 Aug 2022

KSIY 101253Z AUTO 00000KT 10SM CLR 16/04 A3003 RMK AO2 SLP153 T01610044
KSIY 101153Z AUTO 20008KT 10SM CLR 21/04 A3001 RMK AO2 SLP142 T02060044 10256 20200 53001
KSIY 101053Z AUTO 20011KT 10SM CLR 21/04 A3000 RMK AO2 PK WND 18026/1019 SLP139 T02110039
KSIY 100953Z AUTO 20014KT 10SM CLR 22/04 A3000 RMK AO2 SLP139 T02220044
KSIY 100853Z AUTO 17008KT 10SM CLR 22/04 A3000 RMK AO2 SLP140 T02170039 51013
KSIY 100753Z AUTO 14004KT 10SM CLR 21/03 A3000 RMK AO2 SLP141 T02060028 403500139
KSIY 100653Z AUTO 18008KT 10SM CLR 23/03 A2999 RMK AO2 SLP135 T02330033
KSIY 100553Z AUTO 16020KT 10SM CLR 26/03 A2996 RMK AO2 PK WND 13030/0526 SLP126 T02560033 10339 20250 51018
KSIY 100453Z AUTO 14012G21KT 10SM CLR 25/02 A2996 RMK AO2 PK WND 17028/0427 SLP127 T02500017
KSIY 100353Z AUTO 17017KT 10SM CLR 27/02 A2993 RMK AO2 SLP117 T02670022
KSIY 100253Z AUTO 16015KT 10SM CLR 29/00 A2991 RMK AO2 PK WND 17031/0203 SLP111 T02890000 52003
KSIY 100153Z AUTO 17021G31KT 10SM CLR 31/M01 A2990 RMK AO2 PK WND 16031/0147 SLP112 T03111011
KSIY 100053Z AUTO 17021G32KT 10SM CLR 33/01 A2990 RMK AO2 PK WND 18032/0044 SLP109 T03280006
KSIY 092353Z AUTO 16019G31KT 10SM CLR 34/03 A2990 RMK AO2 PK WND 17031/2344 SLP107 T03390028 10350 20300 56011
KSIY 092253Z AUTO 17022G31KT 10SM CLR 34/02 A2991 RMK AO2 PK WND 17033/2154 SLP108 T03440017
KSIY 092153Z AUTO 16024G31KT 10SM CLR 34/04 A2992 RMK AO2 PK WND 17036/2134 SLP111 T03390039
KSIY 092053Z AUTO 18021G32KT 10SM CLR 34/04 A2993 RMK AO2 PK WND 18032/2045 SLP115 T03440044 56014
KSIY 091953Z AUTO 18019G30KT 10SM CLR 34/04 A2994 RMK AO2 PK WND 18030/1945 SLP117 T03390039
KSIY 091853Z AUTO 14022G26KT 10SM CLR 33/06 A2996 RMK AO2 PK WND 18027/1837 SLP123 T03280056
KSIY 091753Z AUTO 18011G17KT 10SM CLR 31/06 A2998 RMK AO2 SLP131 T03060056 10306 20139 58009
KSIY 091653Z AUTO 29003KT 10SM CLR 26/07 A3000 RMK AO2 SLP139 T02610072
KSIY 091553Z AUTO 36004KT 10SM CLR 23/10 A3001 RMK AO2 SLP145 T02280100
KSIY 091453Z AUTO 03003KT 10SM FEW120 20/09 A3001 RMK AO2 SLP143 T02000089 53004
KSIY 091353Z AUTO 00000KT 10SM FEW120 14/02 A3000 RMK AO2 SLP143 T01440022
KSIY 091253Z AUTO 00000KT 10SM CLR 16/06 A2999 RMK AO2 SLP138 T01610061
KSIY 091153Z AUTO 03005KT 10SM CLR 17/04 A2999 RMK AO2 SLP137 T01720044 10261 20167 55001
KSIY 091053Z AUTO 04007KT 10SM CLR 19/03 A2999 RMK AO2 SLP135 T01890028
KSIY 090953Z AUTO 05008KT 10SM CLR 21/08 A2999 RMK AO2 SLP133 T02110083
KSIY 090853Z AUTO 04007KT 10SM CLR 22/09 A3000 RMK AO2 SLP136 T02220089 50002
KSIY 090753Z AUTO 34007KT 10SM FEW120 24/09 A3000 RMK AO2 SLP138 T02390089 403780167
KSIY 090653Z AUTO 05007KT 10SM CLR 24/06 A3000 RMK AO2 SLP139 T02390056
KSIY 090553Z AUTO 04006KT 10SM SCT120 26/M04 A2999 RMK AO2 SLP135 T02561044 10367 20256 51021
KSIY 090453Z AUTO 20006KT 10SM CLR 28/M05 A2998 RMK AO2 SLP133 T02781050
KSIY 090353Z AUTO 00000KT 10SM CLR 28/M04 A2996 RMK AO2 SLP127 T02781044
KSIY 090253Z AUTO 16014KT 10SM CLR 33/M04 A2993 RMK AO2 SLP115 T03281044 55000
KSIY 090153Z AUTO 16013G23KT 10SM CLR 35/M03 A2992 RMK AO2 SLP111 T03501033